Time;durP1;ratioP1;P1;durP2;ratioP2;P2;SDS_P1;SDS_P2;PMS_P1;PMS_P2;Temp;Humidity;BMP_temperature;BMP_pressure;BME280_temperature;BME280_humidity;BME280_pressure;Samples;Min_cycle;Max_cycle;Signal;HPM_P1;HPM_P2
2021/10/29 00:01:10;;;;;;;8.73;7.53;;;21.50;46.10;;;;;;5194022;28;20505;-69
2021/10/29 00:03:42;;;;;;;7.60;6.70;;;21.50;46.20;;;;;;5204430;28;20079;-69
2021/10/29 00:06:14;;;;;;;7.70;6.45;;;21.40;46.20;;;;;;5203005;28;20047;-70
2021/10/29 00:08:47;;;;;;;7.85;6.53;;;21.40;46.20;;;;;;5199417;28;20080;-67
2021/10/29 00:11:19;;;;;;;8.40;7.10;;;21.40;46.20;;;;;;5199844;28;20410;-69
2021/10/29 00:13:51;;;;;;;7.85;6.43;;;21.40;46.20;;;;;;5196978;28;20044;-69
2021/10/29 00:16:24;;;;;;;7.93;6.75;;;21.40;46.20;;;;;;5187047;28;20367;-68
2021/10/29 00:18:56;;;;;;;7.18;6.47;;;21.40;46.20;;;;;;5194618;28;20033;-69
2021/10/29 00:21:29;;;;;;;7.35;6.22;;;21.40;46.20;;;;;;5167571;28;20045;-69
2021/10/29 00:24:01;;;;;;;6.60;5.85;;;21.40;46.30;;;;;;5199972;28;20053;-69
2021/10/29 00:26:33;;;;;;;9.05;6.75;;;21.40;46.20;;;;;;5197938;28;20073;-69
2021/10/29 00:29:06;;;;;;;7.90;6.78;;;21.40;46.20;;;;;;5199514;28;20038;-70
2021/10/29 00:31:39;;;;;;;8.82;7.13;;;21.40;46.20;;;;;;5198693;28;20037;-69
2021/10/29 00:34:11;;;;;;;6.95;6.18;;;21.40;46.20;;;;;;5200137;28;20505;-69
2021/10/29 00:36:44;;;;;;;7.43;6.63;;;21.40;46.20;;;;;;5198955;28;20038;-69
2021/10/29 00:39:16;;;;;;;7.32;6.18;;;21.40;46.20;;;;;;5198743;28;20029;-69
2021/10/29 00:41:49;;;;;;;8.00;6.78;;;21.30;46.30;;;;;;5202578;28;20050;-69
2021/10/29 00:44:26;;;;;;;8.32;6.63;;;21.30;46.20;;;;;;5198024;28;20044;-69
2021/10/29 00:46:58;;;;;;;7.00;6.30;;;21.30;46.10;;;;;;5200112;28;20056;-69
2021/10/29 00:49:31;;;;;;;9.95;6.90;;;21.30;46.20;;;;;;5198644;28;20085;-69
2021/10/29 00:52:03;;;;;;;8.27;7.00;;;21.30;46.20;;;;;;5198093;28;20036;-69
2021/10/29 00:54:37;;;;;;;7.50;6.10;;;21.30;46.10;;;;;;5197468;28;20056;-68
2021/10/29 00:57:09;;;;;;;7.65;6.82;;;21.30;46.00;;;;;;5198196;28;20045;-69
2021/10/29 00:59:42;;;;;;;8.23;6.20;;;21.30;46.00;;;;;;5199673;28;20060;-69
2021/10/29 01:02:14;;;;;;;7.97;6.30;;;21.30;46.10;;;;;;5197584;28;20052;-69
2021/10/29 01:04:48;;;;;;;7.75;6.53;;;21.30;46.20;;;;;;5198352;28;20758;-68
2021/10/29 01:07:20;;;;;;;7.43;6.72;;;21.30;46.10;;;;;;5199612;28;20068;-69
2021/10/29 01:09:53;;;;;;;8.32;6.82;;;21.20;46.10;;;;;;5200941;28;20037;-69
2021/10/29 01:12:25;;;;;;;7.93;6.65;;;21.20;46.10;;;;;;5199266;28;20050;-69
2021/10/29 01:15:02;;;;;;;8.98;7.05;;;21.20;46.10;;;;;;5201216;28;20040;-69
2021/10/29 01:17:34;;;;;;;9.50;7.78;;;21.20;46.10;;;;;;5200102;28;20049;-69
2021/10/29 01:20:08;;;;;;;7.63;6.47;;;21.20;46.00;;;;;;5199673;28;20393;-71
2021/10/29 01:22:40;;;;;;;11.02;7.40;;;21.20;46.00;;;;;;5199130;28;20532;-69
2021/10/29 01:25:13;;;;;;;10.27;7.78;;;21.20;46.10;;;;;;5198849;28;20049;-69
2021/10/29 01:27:45;;;;;;;8.13;6.90;;;21.20;45.90;;;;;;5196399;28;20738;-69
2021/10/29 01:30:18;;;;;;;9.93;7.45;;;21.20;46.00;;;;;;5197451;28;20061;-69
2021/10/29 01:32:50;;;;;;;7.57;6.63;;;21.20;46.10;;;;;;5195134;28;20041;-71
2021/10/29 01:35:22;;;;;;;8.57;7.35;;;21.20;46.00;;;;;;5195773;28;20063;-69
2021/10/29 01:37:55;;;;;;;9.07;7.28;;;21.20;46.00;;;;;;5195965;28;20044;-69
2021/10/29 01:40:27;;;;;;;7.90;6.28;;;21.20;46.10;;;;;;5198374;28;20528;-70
2021/10/29 01:42:59;;;;;;;8.95;7.30;;;21.20;46.00;;;;;;5196556;28;20049;-70
2021/10/29 01:45:33;;;;;;;8.35;7.20;;;21.20;46.00;;;;;;5200393;28;20800;-70
2021/10/29 01:48:05;;;;;;;9.90;7.78;;;21.20;45.90;;;;;;5196576;28;20056;-69
2021/10/29 01:50:38;;;;;;;8.05;7.22;;;21.20;45.90;;;;;;5194830;28;20053;-70
2021/10/29 01:53:10;;;;;;;9.77;7.10;;;21.20;45.90;;;;;;5195192;28;20490;-70
2021/10/29 01:55:43;;;;;;;9.48;7.45;;;21.20;46.70;;;;;;5199294;28;20033;-69
2021/10/29 01:58:16;;;;;;;8.90;7.97;;;21.20;46.00;;;;;;5192212;28;20367;-70
2021/10/29 02:00:48;;;;;;;9.38;7.25;;;21.20;45.90;;;;;;5195801;28;20045;-69
2021/10/29 02:03:20;;;;;;;8.70;7.72;;;21.10;45.80;;;;;;5198433;28;20053;-69
2021/10/29 02:05:53;;;;;;;9.88;7.55;;;21.10;45.70;;;;;;5193124;28;20511;-69
2021/10/29 02:08:27;;;;;;;10.05;7.95;;;21.10;45.60;;;;;;5197358;28;20057;-70
2021/10/29 02:11:01;;;;;;;9.68;7.13;;;21.10;45.40;;;;;;5197255;28;22070;-69
2021/10/29 02:13:33;;;;;;;7.72;6.82;;;21.10;45.40;;;;;;5195058;28;20045;-69
2021/10/29 02:16:06;;;;;;;8.82;6.88;;;21.10;45.40;;;;;;5196361;28;20044;-69
2021/10/29 02:18:38;;;;;;;8.20;6.88;;;21.10;45.50;;;;;;5188398;28;20612;-69
2021/10/29 02:21:11;;;;;;;11.27;7.30;;;21.10;45.40;;;;;;5175504;28;20068;-71
2021/10/29 02:23:43;;;;;;;6.85;6.15;;;21.10;45.30;;;;;;5195898;28;20053;-69
2021/10/29 02:26:15;;;;;;;9.75;7.05;;;21.10;45.40;;;;;;5197262;28;20045;-68
2021/10/29 02:28:48;;;;;;;7.40;6.65;;;21.10;45.30;;;;;;5193018;28;20049;-69
2021/10/29 02:31:20;;;;;;;7.95;6.68;;;21.10;45.40;;;;;;5196034;28;20042;-70
2021/10/29 02:33:54;;;;;;;8.02;6.50;;;21.10;45.30;;;;;;5194691;28;20358;-70
2021/10/29 02:36:26;;;;;;;;;;;21.00;45.20;;;;;;5195523;28;20053;-69
2021/10/29 02:39:01;;;;;;;7.90;6.25;;;21.00;45.00;;;;;;5196339;28;20491;-69
2021/10/29 02:41:34;;;;;;;8.73;6.47;;;21.00;45.20;;;;;;5194976;28;20049;-69
2021/10/29 02:44:07;;;;;;;;;;;21.00;45.10;;;;;;5191708;28;20084;-69
2021/10/29 02:46:39;;;;;;;7.22;6.07;;;20.90;44.90;;;;;;5198533;28;19936;-68
2021/10/29 02:49:11;;;;;;;7.20;6.50;;;21.00;45.00;;;;;;5199078;28;20041;-69
2021/10/29 02:51:44;;;;;;;6.43;5.82;;;21.00;45.00;;;;;;5199036;28;20036;-69
2021/10/29 02:54:16;;;;;;;7.88;6.55;;;21.00;45.40;;;;;;5196389;28;20049;-71
2021/10/29 02:56:48;;;;;;;6.60;5.90;;;20.90;44.80;;;;;;5197974;28;20471;-69
2021/10/29 02:59:21;;;;;;;8.27;5.53;;;20.90;44.70;;;;;;5199674;28;20049;-69
2021/10/29 03:01:53;;;;;;;5.95;5.35;;;20.90;44.50;;;;;;5198991;28;20049;-70
2021/10/29 03:04:26;;;;;;;6.68;5.90;;;20.90;44.60;;;;;;5196051;28;20429;-69
2021/10/29 03:06:58;;;;;;;6.38;5.78;;;20.90;44.50;;;;;;5195340;28;20497;-69
2021/10/29 03:09:30;;;;;;;7.75;5.93;;;20.90;44.50;;;;;;5196366;28;20073;-68
2021/10/29 03:12:03;;;;;;;5.80;5.05;;;20.90;44.30;;;;;;5194590;28;20041;-69
2021/10/29 03:14:35;;;;;;;6.47;5.87;;;20.90;44.20;;;;;;5194184;28;20045;-70
2021/10/29 03:17:08;;;;;;;5.95;5.20;;;20.90;44.30;;;;;;5197510;28;20044;-68
2021/10/29 03:19:40;;;;;;;5.50;4.95;;;20.90;44.20;;;;;;5198530;28;20044;-69
2021/10/29 03:22:14;;;;;;;5.60;5.00;;;20.90;44.20;;;;;;5197971;28;20045;-69
2021/10/29 03:24:46;;;;;;;5.68;4.78;;;20.90;44.20;;;;;;5200251;28;20053;-71
2021/10/29 03:27:19;;;;;;;4.97;4.47;;;20.90;44.20;;;;;;5193545;28;20184;-72
2021/10/29 03:29:51;;;;;;;4.75;4.25;;;20.90;44.50;;;;;;5188745;28;20057;-68
2021/10/29 03:32:24;;;;;;;5.07;4.00;;;20.90;44.80;;;;;;5191284;28;20041;-69
2021/10/29 03:34:58;;;;;;;4.43;4.03;;;20.90;45.10;;;;;;5195034;28;20736;-69
2021/10/29 03:48:31;;;;;;;16.42;5.13;;;21.10;46.50;;;;;;5196207;28;20481;-70
2021/10/29 03:51:09;;;;;;;10.23;3.80;;;21.20;46.70;;;;;;5198596;28;20037;-69
2021/10/29 03:56:23;;;;;;;7.30;3.75;;;21.20;47.00;;;;;;5188983;28;20044;-71
2021/10/29 03:58:57;;;;;;;7.70;3.58;;;21.30;47.10;;;;;;5195079;28;20049;-68
2021/10/29 04:01:30;;;;;;;9.80;4.25;;;21.30;47.20;;;;;;5187034;28;20041;-70
2021/10/29 04:04:02;;;;;;;6.03;4.00;;;21.30;47.30;;;;;;5186864;28;20417;-70
2021/10/29 04:06:35;;;;;;;5.03;3.45;;;21.30;47.30;;;;;;5190531;28;20052;-71
2021/10/29 04:09:07;;;;;;;5.47;3.70;;;21.40;47.40;;;;;;5191136;28;20497;-68
2021/10/29 04:11:40;;;;;;;7.90;4.22;;;21.40;47.50;;;;;;5187270;28;20052;-69
2021/10/29 04:14:13;;;;;;;10.93;4.55;;;21.40;47.60;;;;;;5199288;28;20567;-68
2021/10/29 04:16:45;;;;;;;5.78;3.78;;;21.40;47.70;;;;;;5194003;28;20049;-69
2021/10/29 04:19:18;;;;;;;8.10;4.15;;;21.40;47.70;;;;;;5192651;28;20040;-69
2021/10/29 04:21:50;;;;;;;6.30;3.90;;;21.40;47.80;;;;;;5183308;28;20053;-69
2021/10/29 04:24:23;;;;;;;7.32;3.58;;;21.50;47.90;;;;;;5190361;28;20056;-69
2021/10/29 04:27:02;;;;;;;4.82;3.55;;;21.50;48.20;;;;;;5184371;28;20082;-69
2021/10/29 04:29:36;;;;;;;7.70;3.40;;;21.50;48.10;;;;;;5195816;28;20041;-69
2021/10/29 04:32:08;;;;;;;8.60;3.75;;;21.50;48.10;;;;;;5193123;28;20041;-68
2021/10/29 04:34:41;;;;;;;5.75;3.83;;;21.50;48.20;;;;;;5181815;28;20045;-69
2021/10/29 04:37:13;;;;;;;7.05;3.47;;;21.60;48.40;;;;;;5191322;28;20041;-69
2021/10/29 04:39:47;;;;;;;4.25;3.55;;;21.60;48.30;;;;;;5195882;28;20052;-70
2021/10/29 04:42:20;;;;;;;5.13;3.50;;;21.60;48.30;;;;;;5193999;28;20050;-69
2021/10/29 04:44:52;;;;;;;4.93;3.15;;;21.60;48.30;;;;;;5192145;28;20375;-69
2021/10/29 04:47:25;;;;;;;7.18;3.50;;;21.60;48.30;;;;;;5184364;28;20049;-68
2021/10/29 04:49:57;;;;;;;4.03;3.38;;;21.70;48.30;;;;;;5195024;28;20052;-69
2021/10/29 04:52:29;;;;;;;5.72;3.38;;;21.70;48.30;;;;;;5187543;28;20049;-68
2021/10/29 04:55:02;;;;;;;5.38;3.50;;;21.80;48.40;;;;;;5191365;28;20044;-69
2021/10/29 04:57:35;;;;;;;6.43;3.67;;;21.80;48.40;;;;;;5198908;28;20041;-69
2021/10/29 05:00:09;;;;;;;6.10;3.65;;;21.80;48.50;;;;;;5191540;28;21757;-69
2021/10/29 05:02:41;;;;;;;6.35;2.97;;;21.80;48.50;;;;;;5193458;28;20053;-69
2021/10/29 05:05:14;;;;;;;5.53;3.35;;;21.90;48.50;;;;;;5191782;28;20052;-68
2021/10/29 05:07:46;;;;;;;4.97;3.75;;;21.80;48.50;;;;;;5191545;28;21123;-69
2021/10/29 05:10:19;;;;;;;5.10;3.17;;;21.90;48.60;;;;;;5195832;28;20939;-70
2021/10/29 05:12:51;;;;;;;6.32;3.17;;;21.90;48.70;;;;;;5199978;28;20653;-69
2021/10/29 05:15:24;;;;;;;5.35;3.20;;;21.90;48.70;;;;;;5199144;28;20057;-67
2021/10/29 05:17:57;;;;;;;9.40;3.30;;;21.90;48.80;;;;;;5192032;28;20052;-70
2021/10/29 05:20:30;;;;;;;4.30;3.17;;;22.00;48.80;;;;;;5198166;28;20052;-69
2021/10/29 05:23:02;;;;;;;6.18;3.60;;;21.90;48.80;;;;;;5197706;28;20303;-69
2021/10/29 05:25:34;;;;;;;7.30;3.47;;;22.00;48.90;;;;;;5195348;28;20052;-69
2021/10/29 05:28:07;;;;;;;4.57;3.20;;;22.00;48.90;;;;;;5192836;28;20052;-68
2021/10/29 05:30:39;;;;;;;7.63;3.47;;;22.00;49.00;;;;;;5191993;28;20061;-67
2021/10/29 05:33:12;;;;;;;5.90;2.92;;;22.00;49.00;;;;;;5195671;28;20330;-69
2021/10/29 05:35:44;;;;;;;6.30;3.30;;;22.00;49.60;;;;;;5188276;28;20080;-69
2021/10/29 05:38:16;;;;;;;5.60;3.60;;;22.10;49.10;;;;;;5186724;28;20040;-70
2021/10/29 05:40:49;;;;;;;5.57;3.28;;;22.10;49.20;;;;;;5185463;28;20060;-69
2021/10/29 05:43:22;;;;;;;8.73;3.30;;;22.10;49.20;;;;;;5190564;28;21527;-70
2021/10/29 05:45:54;;;;;;;10.57;3.30;;;22.10;49.40;;;;;;5192157;28;20049;-69
2021/10/29 05:48:27;;;;;;;8.35;3.17;;;22.10;49.40;;;;;;5187012;28;20045;-69
2021/10/29 05:51:09;;;;;;;13.20;3.42;;;22.10;49.40;;;;;;5184962;28;20069;-69
2021/10/29 05:56:21;;;;;;;14.10;3.60;;;22.20;49.70;;;;;;5187061;28;20048;-67
2021/10/29 05:58:54;;;;;;;19.05;4.03;;;22.20;49.90;;;;;;5184311;28;20052;-69
2021/10/29 06:01:26;;;;;;;12.38;3.60;;;22.20;50.00;;;;;;5187278;28;20052;-69
2021/10/29 06:03:59;;;;;;;14.25;3.55;;;22.20;49.90;;;;;;5195446;28;20048;-68
2021/10/29 06:06:31;;;;;;;21.67;3.45;;;22.20;49.80;;;;;;5194093;28;20041;-68
2021/10/29 06:09:04;;;;;;;8.60;3.03;;;22.20;49.80;;;;;;5190754;28;20054;-67
2021/10/29 06:11:37;;;;;;;11.23;3.58;;;22.20;49.70;;;;;;5187751;28;20056;-69
2021/10/29 06:14:09;;;;;;;17.02;3.30;;;22.20;49.70;;;;;;5200069;28;20048;-68
2021/10/29 06:16:42;;;;;;;9.77;3.58;;;22.20;49.70;;;;;;5196795;28;20053;-69
2021/10/29 06:19:14;;;;;;;11.48;4.35;;;22.30;49.80;;;;;;5189765;28;20041;-67
2021/10/29 06:22:01;;;;;;;9.80;3.65;;;22.20;49.80;;;;;;5196301;28;25124;-69
2021/10/29 06:24:35;;;;;;;8.27;3.55;;;22.20;49.80;;;;;;5181683;28;20408;-68
2021/10/29 06:29:52;;;;;;;6.28;2.80;;;22.30;49.90;;;;;;5186172;28;20041;-69
2021/10/29 06:32:27;;;;;;;6.70;3.35;;;22.30;50.00;;;;;;5188004;28;20052;-69
2021/10/29 06:35:00;;;;;;;8.10;3.05;;;22.30;50.00;;;;;;5194692;28;20056;-70
2021/10/29 06:37:33;;;;;;;6.90;3.00;;;22.30;49.90;;;;;;5190429;28;20037;-69
2021/10/29 06:40:10;;;;;;;8.30;2.80;;;22.30;49.90;;;;;;5193455;28;20049;-68
2021/10/29 06:42:50;;;;;;;8.13;3.17;;;22.30;49.80;;;;;;5191506;28;20064;-69
2021/10/29 06:45:43;;;;;;;8.07;2.97;;;22.30;49.70;;;;;;5200930;28;20052;-69
2021/10/29 06:48:21;;;;;;;7.25;2.92;;;22.30;49.60;;;;;;5198505;28;20056;-68
2021/10/29 06:59:35;;;;;;;6.68;3.10;;;22.30;49.50;;;;;;5200472;28;20049;-69
2021/10/29 07:39:57;;;;;;;5.72;2.67;;;22.30;49.40;;;;;;5202407;28;20045;-68
2021/10/29 07:41:57;;;;;;;8.02;3.17;;;22.30;49.10;;;;;;5197346;28;20118;-70
2021/10/29 07:44:31;;;;;;;9.82;2.92;;;22.30;49.10;;;;;;5197959;28;20045;-68
2021/10/29 07:47:03;;;;;;;10.15;3.22;;;22.30;49.00;;;;;;5196820;28;20052;-71
2021/10/29 07:49:36;;;;;;;9.07;2.55;;;22.40;49.30;;;;;;5200787;28;20067;-69
2021/10/29 07:52:16;;;;;;;9.95;2.60;;;22.40;49.60;;;;;;5195353;28;20044;-70
2021/10/29 07:54:48;;;;;;;9.52;2.50;;;22.40;49.50;;;;;;5196781;28;20058;-68
2021/10/29 07:57:21;;;;;;;8.43;2.53;;;22.40;49.20;;;;;;5191404;28;20048;-69
2021/10/29 07:59:55;;;;;;;4.65;2.50;;;22.40;49.00;;;;;;5196138;28;20413;-68
2021/10/29 08:02:27;;;;;;;5.32;2.60;;;22.40;48.90;;;;;;5192299;28;20045;-69
2021/10/29 08:05:00;;;;;;;3.90;2.67;;;22.40;48.80;;;;;;5193410;28;20060;-69
2021/10/29 08:07:33;;;;;;;5.65;3.17;;;22.40;48.80;;;;;;5191998;28;20041;-68
2021/10/29 08:10:09;;;;;;;6.03;2.63;;;22.40;48.90;;;;;;5203418;28;20041;-68
2021/10/29 08:12:41;;;;;;;8.80;3.03;;;22.40;49.00;;;;;;5192892;28;20053;-69
2021/10/29 08:15:14;;;;;;;5.25;2.40;;;22.40;49.10;;;;;;5192499;28;20045;-68
2021/10/29 08:17:47;;;;;;;4.53;2.43;;;22.40;49.00;;;;;;5201041;28;20045;-68
2021/10/29 08:20:21;;;;;;;7.32;2.40;;;22.40;49.10;;;;;;5195169;28;20818;-68
2021/10/29 08:22:53;;;;;;;3.85;2.22;;;22.40;49.10;;;;;;5204541;28;20052;-69
2021/10/29 08:25:25;;;;;;;4.30;2.50;;;22.40;49.20;;;;;;5199828;28;20057;-68
2021/10/29 08:27:58;;;;;;;7.45;2.58;;;22.40;49.20;;;;;;5184855;28;20056;-69
2021/10/29 08:30:51;;;;;;;5.72;2.70;;;22.40;49.20;;;;;;5193433;28;20049;-69
2021/10/29 08:33:24;;;;;;;3.70;2.28;;;22.40;49.30;;;;;;5188137;28;20286;-69
2021/10/29 08:35:56;;;;;;;7.22;2.42;;;22.40;49.30;;;;;;5194989;28;20121;-69
2021/10/29 08:38:29;;;;;;;6.50;2.65;;;22.40;49.40;;;;;;5186357;28;20045;-69
2021/10/29 08:41:19;;;;;;;7.35;2.30;;;22.40;49.50;;;;;;5189608;28;20467;-69
2021/10/29 08:43:52;;;;;;;3.85;2.65;;;22.40;49.40;;;;;;5192499;28;20501;-69
2021/10/29 08:46:29;;;;;;;4.93;2.37;;;22.40;49.50;;;;;;5183863;28;20688;-68
2021/10/29 08:49:02;;;;;;;4.05;2.70;;;22.40;49.60;;;;;;5196621;28;20048;-69
2021/10/29 08:51:36;;;;;;;4.40;2.75;;;22.40;49.50;;;;;;5199033;28;20057;-68
2021/10/29 08:54:09;;;;;;;4.78;2.55;;;22.40;49.50;;;;;;5198710;28;20390;-68
2021/10/29 08:56:41;;;;;;;5.07;2.58;;;22.40;49.50;;;;;;5200111;28;20041;-69
2021/10/29 08:59:18;;;;;;;7.40;2.73;;;22.40;49.50;;;;;;5196221;28;20870;-69
2021/10/29 09:02:18;;;;;;;8.00;3.22;;;22.40;49.50;;;;;;5176428;28;20068;-69
2021/10/29 09:05:11;;;;;;;5.88;2.75;;;22.40;49.50;;;;;;5180568;28;20049;-69
2021/10/29 09:07:58;;;;;;;4.97;2.55;;;22.40;49.40;;;;;;5195163;28;20045;-69
2021/10/29 09:16:43;;;;;;;5.63;2.50;;;22.40;49.50;;;;;;5199217;28;20049;-69
2021/10/29 09:34:04;;;;;;;4.00;3.15;;;22.40;49.70;;;;;;5194947;28;20534;-68
2021/10/29 09:36:47;;;;;;;3.45;2.72;;;22.40;49.60;;;;;;5199635;28;20059;-69
2021/10/29 09:39:24;;;;;;;3.10;2.55;;;22.40;49.60;;;;;;5184805;28;20048;-69
2021/10/29 09:42:12;;;;;;;10.10;3.30;;;22.40;49.70;;;;;;5196477;28;20053;-68
2021/10/29 09:44:47;;;;;;;5.50;3.00;;;22.40;49.70;;;;;;5198994;28;20057;-69
2021/10/29 09:47:24;;;;;;;3.10;2.75;;;22.40;49.70;;;;;;5196495;28;20042;-69
2021/10/29 09:50:05;;;;;;;5.22;3.25;;;22.40;49.70;;;;;;5196120;28;20056;-69
2021/10/29 09:55:21;;;;;;;4.00;2.55;;;22.40;49.70;;;;;;5195501;28;20033;-69
2021/10/29 09:57:54;;;;;;;3.38;2.63;;;22.40;49.70;;;;;;5192148;28;20304;-68
2021/10/29 10:00:30;;;;;;;3.22;2.78;;;22.50;49.80;;;;;;5189626;28;20060;-69
2021/10/29 10:03:04;;;;;;;3.88;2.97;;;22.40;49.80;;;;;;5182369;28;20041;-68
2021/10/29 10:05:38;;;;;;;9.25;2.65;;;22.50;50.40;;;;;;5190772;28;20453;-69
2021/10/29 10:08:11;;;;;;;3.58;2.60;;;22.50;49.80;;;;;;5188324;28;20075;-68
2021/10/29 10:10:48;;;;;;;3.55;2.60;;;22.50;49.80;;;;;;5191067;28;21370;-69
2021/10/29 10:13:21;;;;;;;3.83;2.95;;;22.50;49.80;;;;;;5189457;28;20045;-69
2021/10/29 10:15:58;;;;;;;5.88;3.20;;;22.50;49.80;;;;;;5190561;28;20485;-69
2021/10/29 10:18:30;;;;;;;6.13;3.35;;;22.50;49.70;;;;;;5179885;28;20056;-69
2021/10/29 10:21:09;;;;;;;5.88;3.42;;;22.50;49.70;;;;;;5186449;28;20067;-69
2021/10/29 10:23:44;;;;;;;3.10;2.80;;;22.60;49.80;;;;;;5186858;28;20490;-69
2021/10/29 11:11:13;;;;;;;7.15;4.00;;;23.40;49.70;;;;;;5186068;28;20045;-69
2021/10/29 11:13:58;;;;;;;5.88;3.88;;;23.50;49.70;;;;;;5182887;28;20057;-69
2021/10/29 11:16:37;;;;;;;5.25;3.97;;;23.60;49.60;;;;;;5185964;28;20045;-69
2021/10/29 11:19:22;;;;;;;5.78;4.03;;;23.70;49.50;;;;;;5194050;28;21139;-69
2021/10/29 11:21:56;;;;;;;5.97;4.00;;;23.80;49.50;;;;;;5180618;28;20046;-69
2021/10/29 11:24:36;;;;;;;5.05;4.00;;;23.80;49.50;;;;;;5195258;28;20056;-69
2021/10/29 11:27:13;;;;;;;8.65;3.88;;;23.90;49.40;;;;;;5161560;28;20056;-69
2021/10/29 11:29:50;;;;;;;6.05;4.25;;;23.90;49.30;;;;;;5191387;28;20049;-70
2021/10/29 11:32:24;;;;;;;5.20;3.65;;;24.00;49.30;;;;;;5188029;28;20055;-69
2021/10/29 11:34:59;;;;;;;6.20;3.85;;;24.00;49.30;;;;;;5185964;28;20532;-69
2021/10/29 11:37:36;;;;;;;8.48;4.97;;;24.00;49.30;;;;;;5188991;28;20054;-69
2021/10/29 11:40:10;;;;;;;5.65;4.30;;;24.00;49.40;;;;;;5187837;28;20041;-69
2021/10/29 11:42:53;;;;;;;10.32;4.63;;;24.00;49.40;;;;;;5185869;28;20045;-69
2021/10/29 11:45:34;;;;;;;6.83;4.53;;;24.00;49.40;;;;;;5191039;28;20049;-69
2021/10/29 11:48:07;;;;;;;6.55;4.70;;;24.00;49.40;;;;;;5191802;28;20068;-69
2021/10/29 11:50:39;;;;;;;8.30;4.40;;;23.90;49.40;;;;;;5183981;28;20057;-68
2021/10/29 11:53:14;;;;;;;6.07;4.35;;;23.90;49.40;;;;;;5181253;28;20582;-69
2021/10/29 11:55:52;;;;;;;6.38;4.22;;;23.90;49.50;;;;;;5164668;28;20633;-69
2021/10/29 12:09:29;;;;;;;6.78;4.07;;;23.90;49.40;;;;;;5187241;28;24253;-69
2021/10/29 12:12:08;;;;;;;6.57;4.60;;;23.90;49.50;;;;;;5192404;28;20048;-69
2021/10/29 12:14:45;;;;;;;6.70;4.43;;;23.80;49.50;;;;;;5180984;28;20044;-69
2021/10/29 12:17:25;;;;;;;8.43;4.78;;;23.80;49.50;;;;;;5189949;28;20421;-69
2021/10/29 12:20:02;;;;;;;6.82;4.32;;;23.80;49.50;;;;;;5194871;28;20706;-69
2021/10/29 12:22:39;;;;;;;6.72;4.88;;;23.90;49.60;;;;;;5183174;28;20089;-69
2021/10/29 12:28:28;;;;;;;7.70;4.50;;;23.80;49.80;;;;;;5157663;28;20083;-69
2021/10/29 12:37:02;;;;;;;8.50;4.50;;;23.90;49.80;;;;;;5192571;28;20041;-69
2021/10/29 12:52:28;;;;;;;13.35;5.53;;;23.80;49.60;;;;;;5189396;28;20049;-69
2021/10/29 12:58:46;;;;;;;10.57;5.50;;;23.90;49.60;;;;;;5178937;28;20412;-70
2021/10/29 13:03:45;;;;;;;8.50;5.05;;;23.90;49.40;;;;;;5194082;28;20044;-70
2021/10/29 13:06:17;;;;;;;12.35;5.47;;;24.00;49.30;;;;;;5193577;28;20053;-69
2021/10/29 13:08:50;;;;;;;10.25;5.00;;;24.00;49.20;;;;;;5198198;28;20053;-69
2021/10/29 13:11:24;;;;;;;14.20;6.47;;;24.10;49.10;;;;;;5190642;28;20045;-70
2021/10/29 13:14:00;;;;;;;8.93;5.35;;;24.20;49.00;;;;;;5194226;28;20394;-70
2021/10/29 13:16:34;;;;;;;10.95;6.03;;;24.30;48.80;;;;;;5161003;28;21119;-69
2021/10/29 13:52:58;;;;;;;7.20;5.05;;;27.10;44.50;;;;;;5182136;28;20045;-70
2021/10/29 14:01:33;;;;;;;10.40;6.40;;;28.30;43.10;;;;;;5172906;28;20049;-68
2021/10/29 14:24:24;;;;;;;4.72;3.83;;;25.90;45.70;;;;;;5166678;28;21267;-68
2021/10/29 14:33:40;;;;;;;8.48;4.40;;;25.40;46.50;;;;;;5159906;28;20293;-68
2021/10/29 14:35:39;;;;;;;8.07;4.55;;;25.30;46.80;;;;;;5140948;28;20061;-68
2021/10/29 14:41:10;;;;;;;6.50;4.25;;;25.10;47.00;;;;;;5166076;28;21298;-69
2021/10/29 14:44:01;;;;;;;9.00;4.38;;;25.00;47.20;;;;;;5175979;28;20041;-68
2021/10/29 14:47:03;;;;;;;13.73;4.10;;;24.90;47.40;;;;;;5170283;28;20048;-68
2021/10/29 14:49:39;;;;;;;6.03;3.90;;;24.80;47.70;;;;;;5176779;28;20059;-68
2021/10/29 14:52:38;;;;;;;7.60;4.47;;;24.70;47.90;;;;;;5167272;28;20065;-68
2021/10/29 15:17:47;;;;;;;14.05;4.68;;;24.10;49.50;;;;;;5184044;28;20045;-69
2021/10/29 15:28:32;;;;;;;17.38;5.70;;;23.90;50.00;;;;;;5168309;28;20607;-68
2021/10/29 15:31:27;;;;;;;10.65;4.50;;;23.90;50.10;;;;;;5172732;28;20051;-69
2021/10/29 15:42:48;;;;;;;12.82;4.97;;;23.80;50.60;;;;;;5195634;28;20968;-71
2021/10/29 15:45:24;;;;;;;17.73;4.45;;;23.80;50.70;;;;;;5184688;28;20064;-70
2021/10/29 15:50:37;;;;;;;9.98;4.38;;;23.80;50.90;;;;;;5195337;28;20394;-72
2021/10/29 15:53:12;;;;;;;12.20;3.55;;;23.70;50.80;;;;;;5186698;28;20037;-71
2021/10/29 15:55:55;;;;;;;17.85;4.25;;;23.70;50.90;;;;;;5164372;28;20812;-73
2021/10/29 16:01:28;;;;;;;14.90;4.15;;;23.70;50.80;;;;;;5195004;28;20048;-71
2021/10/29 16:18:38;;;;;;;12.82;4.57;;;23.60;50.60;;;;;;5192907;28;20049;-73
2021/10/29 16:21:11;;;;;;;9.75;4.50;;;23.60;50.60;;;;;;5172030;28;20057;-71
2021/10/29 16:23:43;;;;;;;14.40;4.20;;;23.60;50.60;;;;;;5192320;28;20041;-72
2021/10/29 16:26:18;;;;;;;9.73;4.10;;;23.60;50.60;;;;;;5173875;28;20052;-71
2021/10/29 16:28:52;;;;;;;16.77;4.00;;;23.60;50.60;;;;;;5197442;28;20062;-72
2021/10/29 16:31:26;;;;;;;;;;;23.60;50.60;;;;;;5180215;28;20048;-72
2021/10/29 16:33:58;;;;;;;5.85;3.35;;;23.50;50.60;;;;;;5178063;28;19932;-72
2021/10/29 16:36:31;;;;;;;12.02;3.90;;;23.50;50.70;;;;;;5187707;28;20951;-72
2021/10/29 16:39:04;;;;;;;6.35;4.05;;;23.50;50.70;;;;;;5190027;28;20512;-72
2021/10/29 16:41:37;;;;;;;;;;;23.60;50.80;;;;;;5153390;28;20057;-71
2021/10/29 16:44:09;;;;;;;12.80;3.90;;;23.50;50.90;;;;;;5194511;28;20472;-72
2021/10/29 16:46:43;;;;;;;7.90;4.03;;;23.50;50.90;;;;;;5181378;28;20508;-72
2021/10/29 16:49:22;;;;;;;14.02;3.65;;;23.50;50.90;;;;;;5187381;28;20512;-72
2021/10/29 16:51:55;;;;;;;11.20;4.13;;;23.50;50.90;;;;;;5195326;28;20053;-71
2021/10/29 16:54:27;;;;;;;14.27;4.32;;;23.50;50.90;;;;;;5201674;28;20075;-71
2021/10/29 16:56:59;;;;;;;11.93;4.53;;;23.50;50.90;;;;;;5198257;28;20045;-72
2021/10/29 16:59:38;;;;;;;12.40;4.47;;;23.50;50.90;;;;;;5203727;28;20468;-72
2021/10/29 17:02:12;;;;;;;9.20;3.97;;;23.50;50.90;;;;;;5197888;28;20520;-72
2021/10/29 17:04:44;;;;;;;11.85;4.22;;;23.50;50.90;;;;;;5200499;28;20051;-72
2021/10/29 17:07:17;;;;;;;6.90;3.83;;;23.50;51.50;;;;;;5200337;28;20052;-72
2021/10/29 17:09:50;;;;;;;8.68;4.07;;;23.50;50.90;;;;;;5199364;28;20060;-71
2021/10/29 17:12:24;;;;;;;;;;;23.50;50.80;;;;;;5203156;28;20053;-72
2021/10/29 17:14:56;;;;;;;8.27;4.05;;;23.40;50.80;;;;;;5203023;28;19928;-73
2021/10/29 17:17:28;;;;;;;10.18;4.35;;;23.50;50.90;;;;;;5201287;28;20041;-72
2021/10/29 17:20:03;;;;;;;8.35;3.60;;;23.40;50.80;;;;;;5197188;28;20045;-72
2021/10/29 17:22:36;;;;;;;10.55;4.13;;;23.40;50.80;;;;;;5197280;28;20041;-72
2021/10/29 17:25:11;;;;;;;12.30;3.97;;;23.40;50.80;;;;;;5201385;28;20033;-72
2021/10/29 17:27:43;;;;;;;10.02;3.78;;;23.40;50.90;;;;;;5182911;28;20164;-72
2021/10/29 17:30:17;;;;;;;8.07;3.38;;;23.40;50.80;;;;;;5203373;28;20049;-72
2021/10/29 17:32:50;;;;;;;6.80;3.55;;;23.40;50.90;;;;;;5200609;28;20052;-72
2021/10/29 17:35:23;;;;;;;8.50;3.35;;;23.40;50.90;;;;;;5197355;28;20421;-71
2021/10/29 17:37:56;;;;;;;10.23;4.20;;;23.40;50.80;;;;;;5197725;28;20042;-71
2021/10/29 17:40:28;;;;;;;7.55;4.18;;;23.40;50.80;;;;;;5198756;28;20060;-72
2021/10/29 17:43:01;;;;;;;5.90;3.70;;;23.50;51.60;;;;;;5199940;28;20752;-72
2021/10/29 17:45:34;;;;;;;;;;;23.40;50.80;;;;;;5202576;28;20421;-71
2021/10/29 17:48:06;;;;;;;7.32;4.10;;;23.40;50.90;;;;;;5205569;28;19924;-73
2021/10/29 17:50:40;;;;;;;12.45;4.05;;;23.40;50.90;;;;;;5202850;28;20421;-72
2021/10/29 17:53:12;;;;;;;7.70;3.80;;;23.40;51.00;;;;;;5199628;28;20325;-72
2021/10/29 17:55:45;;;;;;;9.02;3.30;;;23.40;51.00;;;;;;5201315;28;20045;-72
2021/10/29 17:58:17;;;;;;;8.95;3.65;;;23.40;51.00;;;;;;5202145;28;20041;-72
2021/10/29 18:00:50;;;;;;;8.43;3.55;;;23.30;50.90;;;;;;5200969;28;20810;-72
2021/10/29 18:03:25;;;;;;;5.68;3.30;;;23.40;51.00;;;;;;5201139;28;20044;-72
2021/10/29 18:05:57;;;;;;;8.63;3.75;;;23.30;50.90;;;;;;5198628;28;20515;-70
2021/10/29 18:08:43;;;;;;;8.68;3.67;;;23.30;50.90;;;;;;5195460;28;20456;-72
2021/10/29 18:11:15;;;;;;;5.35;3.40;;;23.30;51.00;;;;;;5202043;28;20052;-73
2021/10/29 18:13:47;;;;;;;6.13;3.50;;;23.30;51.00;;;;;;5195680;28;20055;-72
2021/10/29 18:16:20;;;;;;;7.82;3.40;;;23.30;51.00;;;;;;5201192;28;20920;-72
2021/10/29 18:18:55;;;;;;;6.88;4.03;;;23.30;51.00;;;;;;5201699;28;20037;-72
2021/10/29 18:21:28;;;;;;;5.82;3.17;;;23.30;51.00;;;;;;5170140;28;20048;-71
2021/10/29 18:24:00;;;;;;;6.88;3.20;;;23.30;51.10;;;;;;5199530;28;20052;-71